Flugplatz Seedorf

Für EDXS sind keine METAR/TAF Berichte vorhanden.
Es werden die Flugwettermeldungen vom Flugplatz Hamburg-Finkenwerder in 44 km Entfernung angezeigt.

Bericht für EDHI

vom 23.02. um 23:20 UTC

Wind 16 kt aus 270°

Sichtweite 10 km oder mehr

gering bewölkt in 3300 ft

aufgelockert bewölkt in 4700 ft

Temperatur 4.0°C

Taupunkt 2.0°C

Luftfeuchtigkeit 87%

Luftdruck 1014 hPa

EDHI 232320Z AUTO 27016KT 9999 // FEW033/// SCT047/// 04/02 Q1014
Keine Prognose (TAF) verfügbar.
Impressum